sensor_id;sensor_type;location;lat;lon;timestamp;pressure;altitude;pressure_sealevel;temperature;humidity
68197;BME280;55019;49.382;11.358;2023-02-11T00:00:07;98483.81;;;-3.73;87.73
68197;BME280;55019;49.382;11.358;2023-02-11T00:02:33;98475.38;;;-3.72;86.68
68197;BME280;55019;49.382;11.358;2023-02-11T00:04:58;98481.38;;;-3.76;86.42
68197;BME280;55019;49.382;11.358;2023-02-11T00:07:28;98481.91;;;-3.64;85.88
68197;BME280;55019;49.382;11.358;2023-02-11T00:09:53;98484.56;;;-3.70;86.12
68197;BME280;55019;49.382;11.358;2023-02-11T00:12:19;98475.06;;;-3.59;85.45
68197;BME280;55019;49.382;11.358;2023-02-11T00:14:44;98469.53;;;-3.74;85.58
68197;BME280;55019;49.382;11.358;2023-02-11T00:17:09;98473.78;;;-3.76;86.50
68197;BME280;55019;49.382;11.358;2023-02-11T00:19:35;98481.25;;;-3.70;86.37
68197;BME280;55019;49.382;11.358;2023-02-11T00:22:00;98473.72;;;-3.73;86.56
68197;BME280;55019;49.382;11.358;2023-02-11T00:24:25;98474.66;;;-3.77;86.00
68197;BME280;55019;49.382;11.358;2023-02-11T00:26:51;98467.06;;;-3.77;86.14
68197;BME280;55019;49.382;11.358;2023-02-11T00:29:16;98470.28;;;-3.69;86.28
68197;BME280;55019;49.382;11.358;2023-02-11T00:31:41;98464.94;;;-3.57;85.50
68197;BME280;55019;49.382;11.358;2023-02-11T00:34:07;98466.69;;;-3.61;85.09
68197;BME280;55019;49.382;11.358;2023-02-11T00:36:32;98470.41;;;-3.75;85.70
68197;BME280;55019;49.382;11.358;2023-02-11T00:38:58;98478.91;;;-3.79;85.56
68197;BME280;55019;49.382;11.358;2023-02-11T00:41:23;98478.91;;;-3.79;85.28
68197;BME280;55019;49.382;11.358;2023-02-11T00:43:50;98480.59;;;-3.80;85.37
68197;BME280;55019;49.382;11.358;2023-02-11T00:46:16;98471.31;;;-3.79;86.54
68197;BME280;55019;49.382;11.358;2023-02-11T00:48:41;98455.97;;;-3.70;86.40
68197;BME280;55019;49.382;11.358;2023-02-11T00:51:07;98468.50;;;-3.66;87.04
68197;BME280;55019;49.382;11.358;2023-02-11T00:53:33;98460.63;;;-3.52;86.38
68197;BME280;55019;49.382;11.358;2023-02-11T00:55:58;98459.38;;;-3.71;86.66
68197;BME280;55019;49.382;11.358;2023-02-11T00:58:25;98454.91;;;-3.60;86.16
68197;BME280;55019;49.382;11.358;2023-02-11T01:00:52;98459.31;;;-3.70;85.70
68197;BME280;55019;49.382;11.358;2023-02-11T01:03:17;98451.00;;;-3.75;86.03
68197;BME280;55019;49.382;11.358;2023-02-11T01:05:43;98452.84;;;-3.81;85.90
68197;BME280;55019;49.382;11.358;2023-02-11T01:08:08;98457.00;;;-3.79;86.44
68197;BME280;55019;49.382;11.358;2023-02-11T01:10:34;98451.72;;;-3.68;86.24
68197;BME280;55019;49.382;11.358;2023-02-11T01:12:59;98451.81;;;-3.73;86.41
68197;BME280;55019;49.382;11.358;2023-02-11T01:15:25;98447.63;;;-3.74;86.78
68197;BME280;55019;49.382;11.358;2023-02-11T01:17:51;98435.34;;;-3.90;87.16
68197;BME280;55019;49.382;11.358;2023-02-11T01:20:20;98440.25;;;-3.84;86.75
68197;BME280;55019;49.382;11.358;2023-02-11T01:22:46;98444.34;;;-3.77;86.68
68197;BME280;55019;49.382;11.358;2023-02-11T01:25:12;98433.81;;;-3.97;87.89
68197;BME280;55019;49.382;11.358;2023-02-11T01:27:37;98430.28;;;-3.90;86.94
68197;BME280;55019;49.382;11.358;2023-02-11T01:30:05;98420.25;;;-3.93;88.09
68197;BME280;55019;49.382;11.358;2023-02-11T01:32:31;98416.88;;;-3.92;87.71
68197;BME280;55019;49.382;11.358;2023-02-11T01:34:56;98414.06;;;-3.79;87.99
68197;BME280;55019;49.382;11.358;2023-02-11T01:37:21;98413.19;;;-3.78;87.60
68197;BME280;55019;49.382;11.358;2023-02-11T01:39:47;98390.75;;;-3.91;87.10
68197;BME280;55019;49.382;11.358;2023-02-11T01:42:17;98409.66;;;-3.71;86.44
68197;BME280;55019;49.382;11.358;2023-02-11T01:44:43;98404.53;;;-3.68;86.21
68197;BME280;55019;49.382;11.358;2023-02-11T01:47:09;98403.94;;;-3.79;86.70
68197;BME280;55019;49.382;11.358;2023-02-11T01:49:40;98399.53;;;-3.69;86.58
68197;BME280;55019;49.382;11.358;2023-02-11T01:52:11;98401.88;;;-3.60;86.90
68197;BME280;55019;49.382;11.358;2023-02-11T01:54:41;98401.22;;;-3.68;87.36
68197;BME280;55019;49.382;11.358;2023-02-11T01:57:30;98406.41;;;-3.74;87.63
68197;BME280;55019;49.382;11.358;2023-02-11T02:00:16;98397.88;;;-3.70;87.34
68197;BME280;55019;49.382;11.358;2023-02-11T02:05:50;98390.81;;;-3.55;87.09
68197;BME280;55019;49.382;11.358;2023-02-11T02:10:51;98390.69;;;-3.50;86.97
68197;BME280;55019;49.382;11.358;2023-02-11T02:13:21;98378.91;;;-3.51;87.24
68197;BME280;55019;49.382;11.358;2023-02-11T02:15:55;98386.56;;;-3.54;87.85
68197;BME280;55019;49.382;11.358;2023-02-11T02:24:03;98377.81;;;-3.40;87.68
68197;BME280;55019;49.382;11.358;2023-02-11T02:37:54;98374.75;;;-3.17;87.38
68197;BME280;55019;49.382;11.358;2023-02-11T02:40:26;98370.41;;;-3.12;87.41
68197;BME280;55019;49.382;11.358;2023-02-11T02:42:54;98361.69;;;-3.01;86.77
68197;BME280;55019;49.382;11.358;2023-02-11T02:45:20;98351.84;;;-3.11;87.93
68197;BME280;55019;49.382;11.358;2023-02-11T02:47:45;98351.84;;;-3.11;87.28
68197;BME280;55019;49.382;11.358;2023-02-11T02:50:13;98350.66;;;-2.98;87.04
68197;BME280;55019;49.382;11.358;2023-02-11T02:52:48;98347.81;;;-3.18;87.38
68197;BME280;55019;49.382;11.358;2023-02-11T02:55:41;98346.78;;;-3.11;87.36
68197;BME280;55019;49.382;11.358;2023-02-11T03:01:09;98349.16;;;-3.05;88.40
68197;BME280;55019;49.382;11.358;2023-02-11T03:06:18;98353.34;;;-2.73;87.65
68197;BME280;55019;49.382;11.358;2023-02-11T03:08:56;98346.47;;;-2.68;87.34
68197;BME280;55019;49.382;11.358;2023-02-11T03:11:24;98352.16;;;-2.60;87.35
68197;BME280;55019;49.382;11.358;2023-02-11T03:13:50;98346.22;;;-2.59;87.13
68197;BME280;55019;49.382;11.358;2023-02-11T03:16:26;98354.44;;;-2.51;86.62
68197;BME280;55019;49.382;11.358;2023-02-11T03:18:58;98361.94;;;-2.48;87.11
68197;BME280;55019;49.382;11.358;2023-02-11T03:21:27;98366.00;;;-2.42;86.42
68197;BME280;55019;49.382;11.358;2023-02-11T03:23:57;98365.53;;;-2.56;86.79
68197;BME280;55019;49.382;11.358;2023-02-11T03:26:29;98365.41;;;-2.50;86.93
68197;BME280;55019;49.382;11.358;2023-02-11T03:32:08;98376.06;;;-2.39;86.60
68197;BME280;55019;49.382;11.358;2023-02-11T03:34:48;98372.75;;;-2.43;86.42
68197;BME280;55019;49.382;11.358;2023-02-11T03:37:42;98379.56;;;-2.45;86.47
68197;BME280;55019;49.382;11.358;2023-02-11T03:40:14;98362.28;;;-2.31;86.57
68197;BME280;55019;49.382;11.358;2023-02-11T03:42:52;98373.00;;;-2.21;86.45
68197;BME280;55019;49.382;11.358;2023-02-11T03:45:21;98370.63;;;-2.26;86.07
68197;BME280;55019;49.382;11.358;2023-02-11T03:47:59;98363.13;;;-2.29;86.34
68197;BME280;55019;49.382;11.358;2023-02-11T03:50:28;98355.31;;;-2.52;86.90
68197;BME280;55019;49.382;11.358;2023-02-11T03:52:57;98351.97;;;-2.52;86.83
68197;BME280;55019;49.382;11.358;2023-02-11T03:55:26;98346.13;;;-2.56;87.10
68197;BME280;55019;49.382;11.358;2023-02-11T03:57:52;98356.25;;;-2.56;87.17
68197;BME280;55019;49.382;11.358;2023-02-11T04:00:18;98344.56;;;-2.31;86.55
68197;BME280;55019;49.382;11.358;2023-02-11T04:02:43;98333.56;;;-2.30;86.89
68197;BME280;55019;49.382;11.358;2023-02-11T04:05:11;98325.13;;;-2.59;86.64
68197;BME280;55019;49.382;11.358;2023-02-11T04:07:37;98330.28;;;-2.62;87.47
68197;BME280;55019;49.382;11.358;2023-02-11T04:10:03;98343.44;;;-2.50;87.70
68197;BME280;55019;49.382;11.358;2023-02-11T04:12:28;98340.38;;;-2.32;87.52
68197;BME280;55019;49.382;11.358;2023-02-11T04:14:54;98324.13;;;-2.23;87.25
68197;BME280;55019;49.382;11.358;2023-02-11T04:17:19;98334.81;;;-2.14;86.70
68197;BME280;55019;49.382;11.358;2023-02-11T04:19:45;98328.22;;;-2.19;86.07
68197;BME280;55019;49.382;11.358;2023-02-11T04:22:10;98325.56;;;-2.15;86.14
68197;BME280;55019;49.382;11.358;2023-02-11T04:24:36;98334.56;;;-2.06;86.07
68197;BME280;55019;49.382;11.358;2023-02-11T04:27:01;98346.44;;;-2.07;85.68
68197;BME280;55019;49.382;11.358;2023-02-11T04:29:27;98333.97;;;-2.14;85.78
68197;BME280;55019;49.382;11.358;2023-02-11T04:31:53;98333.56;;;-1.99;85.75
68197;BME280;55019;49.382;11.358;2023-02-11T04:34:19;98333.66;;;-2.04;85.63
68197;BME280;55019;49.382;11.358;2023-02-11T04:36:44;98326.75;;;-1.99;85.37
68197;BME280;55019;49.382;11.358;2023-02-11T04:39:10;98321.13;;;-2.08;85.33
68197;BME280;55019;49.382;11.358;2023-02-11T04:41:35;98312.66;;;-2.07;85.12
68197;BME280;55019;49.382;11.358;2023-02-11T04:44:00;98305.91;;;-2.07;85.59
68197;BME280;55019;49.382;11.358;2023-02-11T04:46:26;98303.97;;;-1.99;84.74
68197;BME280;55019;49.382;11.358;2023-02-11T04:48:51;98300.09;;;-2.10;84.92
68197;BME280;55019;49.382;11.358;2023-02-11T04:51:17;98287.69;;;-2.18;85.06
68197;BME280;55019;49.382;11.358;2023-02-11T04:53:42;98294.41;;;-2.17;85.53
68197;BME280;55019;49.382;11.358;2023-02-11T04:56:07;98291.38;;;-2.29;85.39
68197;BME280;55019;49.382;11.358;2023-02-11T04:58:33;98292.53;;;-2.39;86.12
68197;BME280;55019;49.382;11.358;2023-02-11T05:01:13;98282.94;;;-2.30;86.03
68197;BME280;55019;49.382;11.358;2023-02-11T05:03:39;98273.84;;;-2.35;86.34
68197;BME280;55019;49.382;11.358;2023-02-11T05:06:05;98271.09;;;-2.28;86.19
68197;BME280;55019;49.382;11.358;2023-02-11T05:08:31;98270.34;;;-2.31;86.62
68197;BME280;55019;49.382;11.358;2023-02-11T05:10:56;98264.44;;;-2.32;86.09
68197;BME280;55019;49.382;11.358;2023-02-11T05:13:22;98279.19;;;-2.46;86.19
68197;BME280;55019;49.382;11.358;2023-02-11T05:15:47;98273.63;;;-2.28;85.74
68197;BME280;55019;49.382;11.358;2023-02-11T05:18:12;98280.66;;;-2.37;86.17
68197;BME280;55019;49.382;11.358;2023-02-11T05:20:42;98285.53;;;-2.31;86.61
68197;BME280;55019;49.382;11.358;2023-02-11T05:23:08;98303.28;;;-2.33;86.63
68197;BME280;55019;49.382;11.358;2023-02-11T05:25:33;98300.66;;;-2.30;87.20
68197;BME280;55019;49.382;11.358;2023-02-11T05:27:59;98299.72;;;-2.26;87.41
68197;BME280;55019;49.382;11.358;2023-02-11T05:30:24;98295.38;;;-2.22;86.76
68197;BME280;55019;49.382;11.358;2023-02-11T05:32:50;98296.47;;;-2.02;86.29
68197;BME280;55019;49.382;11.358;2023-02-11T05:35:15;98289.06;;;-2.08;86.69
68197;BME280;55019;49.382;11.358;2023-02-11T05:37:41;98295.69;;;-2.04;86.80
68197;BME280;55019;49.382;11.358;2023-02-11T05:40:06;98294.59;;;-1.95;86.60
68197;BME280;55019;49.382;11.358;2023-02-11T05:42:32;98291.78;;;-1.86;86.25
68197;BME280;55019;49.382;11.358;2023-02-11T05:44:57;98295.03;;;-1.83;86.24
68197;BME280;55019;49.382;11.358;2023-02-11T05:47:23;98289.00;;;-2.06;87.02
68197;BME280;55019;49.382;11.358;2023-02-11T05:49:48;98287.78;;;-1.93;86.54
68197;BME280;55019;49.382;11.358;2023-02-11T05:52:13;98296.94;;;-1.89;86.57
68197;BME280;55019;49.382;11.358;2023-02-11T05:54:39;98296.06;;;-2.16;86.99
68197;BME280;55019;49.382;11.358;2023-02-11T05:57:04;98288.97;;;-2.05;87.32
68197;BME280;55019;49.382;11.358;2023-02-11T05:59:30;98287.69;;;-2.18;87.29
68197;BME280;55019;49.382;11.358;2023-02-11T06:01:55;98277.28;;;-2.38;88.17
68197;BME280;55019;49.382;11.358;2023-02-11T06:04:20;98267.16;;;-2.38;89.00
68197;BME280;55019;49.382;11.358;2023-02-11T06:06:46;98280.41;;;-2.30;88.76
68197;BME280;55019;49.382;11.358;2023-02-11T06:09:11;98276.22;;;-2.31;89.07
68197;BME280;55019;49.382;11.358;2023-02-11T06:11:37;98273.47;;;-2.23;89.25
68197;BME280;55019;49.382;11.358;2023-02-11T06:14:02;98263.06;;;-2.14;89.77
68197;BME280;55019;49.382;11.358;2023-02-11T06:16:28;98261.78;;;-2.00;89.29
68197;BME280;55019;49.382;11.358;2023-02-11T06:18:53;98254.97;;;-1.98;89.12
68197;BME280;55019;49.382;11.358;2023-02-11T06:21:19;98244.25;;;-1.80;88.76
68197;BME280;55019;49.382;11.358;2023-02-11T06:23:44;98263.28;;;-1.67;88.50
68197;BME280;55019;49.382;11.358;2023-02-11T06:26:16;98264.84;;;-1.63;88.25
68197;BME280;55019;49.382;11.358;2023-02-11T06:28:42;98259.81;;;-1.64;88.06
68197;BME280;55019;49.382;11.358;2023-02-11T06:31:07;98258.25;;;-1.68;88.02
68197;BME280;55019;49.382;11.358;2023-02-11T06:33:34;98262.81;;;-1.53;87.93
68197;BME280;55019;49.382;11.358;2023-02-11T06:35:59;98267.72;;;-1.47;87.29
68197;BME280;55019;49.382;11.358;2023-02-11T06:38:25;98265.22;;;-1.49;87.46
68197;BME280;55019;49.382;11.358;2023-02-11T06:40:50;98260.44;;;-1.58;88.45
68197;BME280;55019;49.382;11.358;2023-02-11T06:43:15;98257.75;;;-1.53;88.53
68197;BME280;55019;49.382;11.358;2023-02-11T06:45:41;98265.75;;;-1.40;88.60
68197;BME280;55019;49.382;11.358;2023-02-11T06:48:06;98267.75;;;-1.23;87.37
68197;BME280;55019;49.382;11.358;2023-02-11T06:50:32;98265.25;;;-1.25;87.22
68197;BME280;55019;49.382;11.358;2023-02-11T06:52:58;98265.91;;;-1.20;87.17
68197;BME280;55019;49.382;11.358;2023-02-11T06:55:24;98270.31;;;-1.25;87.19
68197;BME280;55019;49.382;11.358;2023-02-11T06:57:49;98271.16;;;-1.24;87.47
68197;BME280;55019;49.382;11.358;2023-02-11T07:00:15;98271.84;;;-1.19;87.26
68197;BME280;55019;49.382;11.358;2023-02-11T07:02:40;98276.69;;;-1.13;86.56
68197;BME280;55019;49.382;11.358;2023-02-11T07:05:06;98281.69;;;-1.12;87.08
68197;BME280;55019;49.382;11.358;2023-02-11T07:07:32;98281.13;;;-0.95;86.26
68197;BME280;55019;49.382;11.358;2023-02-11T07:09:57;98300.75;;;-0.76;85.70
68197;BME280;55019;49.382;11.358;2023-02-11T07:12:24;98292.22;;;-0.73;85.06
68197;BME280;55019;49.382;11.358;2023-02-11T07:14:49;98290.34;;;-0.68;85.18
68197;BME280;55019;49.382;11.358;2023-02-11T07:17:15;98289.13;;;-0.58;84.44
68197;BME280;55019;49.382;11.358;2023-02-11T07:19:40;98286.38;;;-0.75;84.26
68197;BME280;55019;49.382;11.358;2023-02-11T07:22:06;98298.25;;;-0.77;84.67
68197;BME280;55019;49.382;11.358;2023-02-11T07:24:31;98292.91;;;-0.93;84.44
68197;BME280;55019;49.382;11.358;2023-02-11T07:26:57;98300.34;;;-0.88;84.08
68197;BME280;55019;49.382;11.358;2023-02-11T07:29:22;98289.69;;;-0.73;83.54
68197;BME280;55019;49.382;11.358;2023-02-11T07:31:47;98295.88;;;-0.82;83.05
68197;BME280;55019;49.382;11.358;2023-02-11T07:34:13;98300.31;;;-0.64;82.49
68197;BME280;55019;49.382;11.358;2023-02-11T07:36:38;98288.19;;;-0.56;81.80
68197;BME280;55019;49.382;11.358;2023-02-11T07:39:04;98295.84;;;-0.57;82.13
68197;BME280;55019;49.382;11.358;2023-02-11T07:41:29;98294.41;;;-0.41;81.09
68197;BME280;55019;49.382;11.358;2023-02-11T07:43:55;98287.53;;;-0.38;81.62
68197;BME280;55019;49.382;11.358;2023-02-11T07:46:25;98282.53;;;-0.18;80.66
68197;BME280;55019;49.382;11.358;2023-02-11T07:48:52;98294.44;;;-0.18;80.79
68197;BME280;55019;49.382;11.358;2023-02-11T07:51:20;98301.28;;;0.22;80.44
68197;BME280;55019;49.382;11.358;2023-02-11T07:53:46;98287.94;;;0.17;79.42
68197;BME280;55019;49.382;11.358;2023-02-11T07:56:13;98295.88;;;0.31;79.88
68197;BME280;55019;49.382;11.358;2023-02-11T07:58:39;98287.91;;;0.60;78.48
68197;BME280;55019;49.382;11.358;2023-02-11T08:01:13;98281.31;;;0.96;77.54
68197;BME280;55019;49.382;11.358;2023-02-11T08:03:39;98293.28;;;1.34;76.87
68197;BME280;55019;49.382;11.358;2023-02-11T08:06:11;98295.84;;;1.71;75.75
68197;BME280;55019;49.382;11.358;2023-02-11T08:08:37;98306.75;;;1.93;74.38
68197;BME280;55019;49.382;11.358;2023-02-11T08:13:32;98301.66;;;2.47;70.85
68197;BME280;55019;49.382;11.358;2023-02-11T08:15:57;98307.06;;;2.22;71.77
68197;BME280;55019;49.382;11.358;2023-02-11T08:18:23;98313.25;;;3.04;70.44
68197;BME280;55019;49.382;11.358;2023-02-11T08:20:48;98308.88;;;4.65;63.56
68197;BME280;55019;49.382;11.358;2023-02-11T08:23:13;98300.19;;;7.66;52.73
68197;BME280;55019;49.382;11.358;2023-02-11T08:25:39;98305.31;;;4.68;59.16
68197;BME280;55019;49.382;11.358;2023-02-11T08:28:04;98300.34;;;3.07;66.77
68197;BME280;55019;49.382;11.358;2023-02-11T08:30:29;98300.41;;;2.01;72.17
68197;BME280;55019;49.382;11.358;2023-02-11T08:32:55;98303.66;;;2.05;72.54
68197;BME280;55019;49.382;11.358;2023-02-11T08:35:20;98296.34;;;1.97;73.22
68197;BME280;55019;49.382;11.358;2023-02-11T08:37:46;98281.06;;;1.79;73.75
68197;BME280;55019;49.382;11.358;2023-02-11T08:40:11;98292.34;;;1.55;75.61
68197;BME280;55019;49.382;11.358;2023-02-11T08:42:36;98296.13;;;1.27;76.08
68197;BME280;55019;49.382;11.358;2023-02-11T08:45:02;98295.34;;;1.44;76.03
68197;BME280;55019;49.382;11.358;2023-02-11T08:47:29;98288.25;;;1.13;78.13
68197;BME280;55019;49.382;11.358;2023-02-11T08:49:55;98283.03;;;1.16;78.17
68197;BME280;55019;49.382;11.358;2023-02-11T08:52:21;98278.53;;;1.02;79.00
68197;BME280;55019;49.382;11.358;2023-02-11T08:54:46;98284.50;;;1.01;79.17
68197;BME280;55019;49.382;11.358;2023-02-11T08:57:12;98274.31;;;1.01;80.02
68197;BME280;55019;49.382;11.358;2023-02-11T08:59:37;98280.28;;;1.20;79.66
68197;BME280;55019;49.382;11.358;2023-02-11T09:02:04;98283.34;;;1.28;79.27
68197;BME280;55019;49.382;11.358;2023-02-11T09:04:30;98287.47;;;1.31;78.18
68197;BME280;55019;49.382;11.358;2023-02-11T09:06:55;98292.28;;;1.37;79.13
68197;BME280;55019;49.382;11.358;2023-02-11T09:09:21;98289.03;;;1.53;78.67
68197;BME280;55019;49.382;11.358;2023-02-11T09:11:46;98281.69;;;1.45;78.81
68197;BME280;55019;49.382;11.358;2023-02-11T09:14:20;98284.78;;;1.34;79.50
68197;BME280;55019;49.382;11.358;2023-02-11T09:16:46;98284.47;;;1.41;79.90
68197;BME280;55019;49.382;11.358;2023-02-11T09:19:12;98274.81;;;1.47;79.34
68197;BME280;55019;49.382;11.358;2023-02-11T09:21:37;98269.84;;;1.83;78.92
68197;BME280;55019;49.382;11.358;2023-02-11T09:24:03;98284.19;;;2.02;77.69
68197;BME280;55019;49.382;11.358;2023-02-11T09:26:32;98271.75;;;2.84;75.28
68197;BME280;55019;49.382;11.358;2023-02-11T09:28:59;98285.31;;;3.35;71.05
68197;BME280;55019;49.382;11.358;2023-02-11T09:31:27;98278.38;;;3.20;71.83
68197;BME280;55019;49.382;11.358;2023-02-11T09:33:56;98293.56;;;3.40;71.53
68197;BME280;55019;49.382;11.358;2023-02-11T09:36:24;98304.78;;;3.21;72.79
68197;BME280;55019;49.382;11.358;2023-02-11T09:38:50;98308.28;;;3.18;72.38
68197;BME280;55019;49.382;11.358;2023-02-11T09:44:05;98298.91;;;3.19;73.56
68197;BME280;55019;49.382;11.358;2023-02-11T09:46:35;98303.63;;;3.26;73.81
68197;BME280;55019;49.382;11.358;2023-02-11T09:49:02;98300.03;;;3.13;73.74
68197;BME280;55019;49.382;11.358;2023-02-11T09:53:57;98292.31;;;3.15;74.07
68197;BME280;55019;49.382;11.358;2023-02-11T09:56:26;98292.50;;;3.27;74.20
68197;BME280;55019;49.382;11.358;2023-02-11T09:58:51;98287.84;;;3.35;72.84
68197;BME280;55019;49.382;11.358;2023-02-11T10:06:50;98295.47;;;4.00;71.38
68197;BME280;55019;49.382;11.358;2023-02-11T10:15:07;98302.34;;;5.90;65.15
68197;BME280;55019;49.382;11.358;2023-02-11T10:20:36;98284.38;;;8.90;55.51
68197;BME280;55019;49.382;11.358;2023-02-11T10:23:18;98295.25;;;7.50;57.07
68197;BME280;55019;49.382;11.358;2023-02-11T10:25:48;98300.97;;;6.65;60.80
68197;BME280;55019;49.382;11.358;2023-02-11T10:28:23;98297.31;;;7.33;57.67
68197;BME280;55019;49.382;11.358;2023-02-11T10:31:10;98299.19;;;8.29;57.18
68197;BME280;55019;49.382;11.358;2023-02-11T10:34:18;98290.66;;;9.66;52.55
68197;BME280;55019;49.382;11.358;2023-02-11T10:36:43;98286.19;;;9.01;52.62
68197;BME280;55019;49.382;11.358;2023-02-11T10:41:43;98282.59;;;6.71;62.08
68197;BME280;55019;49.382;11.358;2023-02-11T10:44:41;98278.78;;;6.64;61.52
68197;BME280;55019;49.382;11.358;2023-02-11T10:47:13;98277.22;;;8.36;57.56
68197;BME280;55019;49.382;11.358;2023-02-11T10:49:43;98281.63;;;7.86;58.32
68197;BME280;55019;49.382;11.358;2023-02-11T10:55:04;98289.25;;;7.00;61.29
68197;BME280;55019;49.382;11.358;2023-02-11T10:57:35;98285.56;;;6.39;63.04
68197;BME280;55019;49.382;11.358;2023-02-11T11:00:07;98287.94;;;5.46;66.05
68197;BME280;55019;49.382;11.358;2023-02-11T11:02:43;98292.03;;;5.20;68.09
68197;BME280;55019;49.382;11.358;2023-02-11T11:05:19;98284.78;;;5.13;67.76
68197;BME280;55019;49.382;11.358;2023-02-11T11:07:57;98281.28;;;4.70;70.00
68197;BME280;55019;49.382;11.358;2023-02-11T11:10:30;98268.47;;;4.41;70.74
68197;BME280;55019;49.382;11.358;2023-02-11T11:12:58;98275.47;;;4.22;72.54
68197;BME280;55019;49.382;11.358;2023-02-11T11:15:30;98274.50;;;4.40;72.08
68197;BME280;55019;49.382;11.358;2023-02-11T11:18:13;98282.25;;;4.38;72.18
68197;BME280;55019;49.382;11.358;2023-02-11T11:20:53;98279.63;;;4.40;72.36
68197;BME280;55019;49.382;11.358;2023-02-11T11:23:21;98275.97;;;4.89;71.32
68197;BME280;55019;49.382;11.358;2023-02-11T11:26:05;98277.28;;;5.10;69.56
68197;BME280;55019;49.382;11.358;2023-02-11T11:28:59;98275.69;;;5.07;70.94
68197;BME280;55019;49.382;11.358;2023-02-11T11:31:43;98273.00;;;5.24;70.38
68197;BME280;55019;49.382;11.358;2023-02-11T11:36:48;98274.59;;;4.68;71.84
68197;BME280;55019;49.382;11.358;2023-02-11T11:39:19;98278.44;;;4.45;73.33
68197;BME280;55019;49.382;11.358;2023-02-11T11:41:52;98282.91;;;4.42;73.23
68197;BME280;55019;49.382;11.358;2023-02-11T11:47:18;98285.56;;;4.10;75.24
68197;BME280;55019;49.382;11.358;2023-02-11T11:52:38;98270.69;;;4.47;73.79
68197;BME280;55019;49.382;11.358;2023-02-11T11:55:21;98265.75;;;4.44;75.07
68197;BME280;55019;49.382;11.358;2023-02-11T11:57:49;98268.59;;;4.53;74.12
68197;BME280;55019;49.382;11.358;2023-02-11T12:05:58;98266.19;;;4.50;75.00
68197;BME280;55019;49.382;11.358;2023-02-11T12:11:25;98252.59;;;4.79;73.78
68197;BME280;55019;49.382;11.358;2023-02-11T12:14:16;98254.59;;;4.74;73.27
68197;BME280;55019;49.382;11.358;2023-02-11T12:17:03;98260.97;;;4.97;73.06
68197;BME280;55019;49.382;11.358;2023-02-11T12:20:11;98246.75;;;4.91;73.55
68197;BME280;55019;49.382;11.358;2023-02-11T12:23:10;98252.13;;;4.73;74.23
68197;BME280;55019;49.382;11.358;2023-02-11T12:28:40;98250.38;;;5.03;72.76
68197;BME280;55019;49.382;11.358;2023-02-11T12:36:47;98246.72;;;5.35;72.21
68197;BME280;55019;49.382;11.358;2023-02-11T12:45:59;98236.22;;;5.67;70.98
68197;BME280;55019;49.382;11.358;2023-02-11T12:56:47;98225.13;;;5.53;71.34
68197;BME280;55019;49.382;11.358;2023-02-11T12:59:43;98217.28;;;5.42;72.06
68197;BME280;55019;49.382;11.358;2023-02-11T13:05:04;98230.63;;;5.47;71.97
68197;BME280;55019;49.382;11.358;2023-02-11T13:07:39;98218.25;;;5.53;71.05
68197;BME280;55019;49.382;11.358;2023-02-11T13:12:42;98212.88;;;5.44;71.54
68197;BME280;55019;49.382;11.358;2023-02-11T13:15:27;98204.44;;;5.42;71.09
68197;BME280;55019;49.382;11.358;2023-02-11T13:18:05;98209.56;;;5.56;70.97
68197;BME280;55019;49.382;11.358;2023-02-11T13:20:57;98200.22;;;5.55;70.96
68197;BME280;55019;49.382;11.358;2023-02-11T13:23:39;98208.72;;;5.55;70.64
68197;BME280;55019;49.382;11.358;2023-02-11T13:26:15;98211.41;;;5.54;70.58
68197;BME280;55019;49.382;11.358;2023-02-11T13:28:56;98215.44;;;5.44;69.83
68197;BME280;55019;49.382;11.358;2023-02-11T13:31:26;98212.22;;;5.40;69.71
68197;BME280;55019;49.382;11.358;2023-02-11T13:33:52;98204.28;;;5.45;69.93
68197;BME280;55019;49.382;11.358;2023-02-11T13:36:20;98207.91;;;5.27;69.78
68197;BME280;55019;49.382;11.358;2023-02-11T13:38:58;98220.28;;;5.34;69.63
68197;BME280;55019;49.382;11.358;2023-02-11T13:41:42;98223.47;;;5.24;69.99
68197;BME280;55019;49.382;11.358;2023-02-11T13:49:34;98224.69;;;5.18;69.32
68197;BME280;55019;49.382;11.358;2023-02-11T13:52:04;98233.09;;;5.20;69.74
68197;BME280;55019;49.382;11.358;2023-02-11T13:54:38;98227.13;;;5.20;69.79
68197;BME280;55019;49.382;11.358;2023-02-11T13:59:48;98233.91;;;5.21;69.99
68197;BME280;55019;49.382;11.358;2023-02-11T14:02:33;98223.63;;;4.93;70.17
68197;BME280;55019;49.382;11.358;2023-02-11T14:05:22;98224.19;;;4.98;70.21
68197;BME280;55019;49.382;11.358;2023-02-11T14:08:13;98236.84;;;5.29;69.61
68197;BME280;55019;49.382;11.358;2023-02-11T14:19:37;98220.97;;;4.94;72.71
68197;BME280;55019;49.382;11.358;2023-02-11T14:22:04;98218.97;;;4.99;72.37
68197;BME280;55019;49.382;11.358;2023-02-11T14:29:36;98221.59;;;4.84;73.13
68197;BME280;55019;49.382;11.358;2023-02-11T14:40:31;98223.91;;;5.02;73.54
68197;BME280;55019;49.382;11.358;2023-02-11T14:43:04;98219.03;;;4.84;74.59
68197;BME280;55019;49.382;11.358;2023-02-11T14:45:34;98219.47;;;4.62;77.30
68197;BME280;55019;49.382;11.358;2023-02-11T14:48:14;98219.84;;;4.41;78.70
68197;BME280;55019;49.382;11.358;2023-02-11T14:53:16;98238.75;;;4.08;80.75
68197;BME280;55019;49.382;11.358;2023-02-11T14:55:48;98236.31;;;4.06;81.54
68197;BME280;55019;49.382;11.358;2023-02-11T14:58:26;98243.66;;;3.97;82.11
68197;BME280;55019;49.382;11.358;2023-02-11T15:03:31;98228.91;;;3.86;83.62
68197;BME280;55019;49.382;11.358;2023-02-11T15:08:29;98232.78;;;3.93;82.99
68197;BME280;55019;49.382;11.358;2023-02-11T15:10:56;98232.03;;;3.91;82.95
68197;BME280;55019;49.382;11.358;2023-02-11T15:13:24;98227.66;;;3.78;84.35
68197;BME280;55019;49.382;11.358;2023-02-11T15:15:59;98229.97;;;3.67;85.29
68197;BME280;55019;49.382;11.358;2023-02-11T15:18:34;98243.94;;;3.44;87.04
68197;BME280;55019;49.382;11.358;2023-02-11T15:21:02;98252.09;;;3.51;86.56
68197;BME280;55019;49.382;11.358;2023-02-11T15:23:28;98251.88;;;3.55;87.30
68197;BME280;55019;49.382;11.358;2023-02-11T15:25:54;98249.41;;;3.69;86.85
68197;BME280;55019;49.382;11.358;2023-02-11T15:28:26;98258.31;;;3.62;87.11